LEBB/BIO METAR and TAF weather

Enter ICAO airport designator
Station Type Date Time Source
LEBB METAR 2019/08/23 15:00 UTC NOAA

LEBB 231500Z 27009KT 230V310 CAVOK 31/17 Q1016 NOSIG


Station Type Date Time Source
LEBB Decoded METAR 2019/08/23 15:00 UTC NOAA

Station name not available
Aug 23, 2019 - 11:00 AM EDT / 2019.08.23 1500 UTC
Wind: from the W (270 degrees) at 10 MPH (9 KT) (direction variable):0
Visibility: greater than 7 mile(s):0
Temperature: 87 F (31 C)
Dew Point: 62 F (17 C)
Relative Humidity: 43%
Pressure (altimeter): 30.00 in. Hg (1016 hPa)
ob: LEBB 231500Z 27009KT 230V310 CAVOK 31/17 Q1016 NOSIG
cycle: 15

Station Type Date Time Source
LEBB TAF 2019/08/23 12:27 UTC NOAA

TAF LEBB 231100Z 2312/2412 10005KT CAVOK TX35/2314Z TN18/2404Z PROB40
TEMPO 2314/2319 36010KT

Example: see airport list